sensor_id;sensor_type;location;lat;lon;timestamp;temperature;humidity
23499;DHT22;11926;48.120;11.562;2023-05-14T00:00:41;12.70;96.50
23499;DHT22;11926;48.120;11.562;2023-05-14T00:03:29;12.70;96.40
23499;DHT22;11926;48.120;11.562;2023-05-14T00:06:17;12.80;96.40
23499;DHT22;11926;48.120;11.562;2023-05-14T00:09:04;12.80;96.40
23499;DHT22;11926;48.120;11.562;2023-05-14T00:11:52;12.70;96.30
23499;DHT22;11926;48.120;11.562;2023-05-14T00:14:39;12.70;96.30
23499;DHT22;11926;48.120;11.562;2023-05-14T00:17:26;12.70;96.40
23499;DHT22;11926;48.120;11.562;2023-05-14T00:20:13;12.70;96.30
23499;DHT22;11926;48.120;11.562;2023-05-14T00:23:02;12.70;96.30
23499;DHT22;11926;48.120;11.562;2023-05-14T00:25:49;12.70;96.30
23499;DHT22;11926;48.120;11.562;2023-05-14T00:28:36;12.70;96.30
23499;DHT22;11926;48.120;11.562;2023-05-14T00:31:23;12.70;96.30
23499;DHT22;11926;48.120;11.562;2023-05-14T00:34:11;12.80;96.20
23499;DHT22;11926;48.120;11.562;2023-05-14T00:36:58;12.70;96.10
23499;DHT22;11926;48.120;11.562;2023-05-14T00:39:47;12.70;96.20
23499;DHT22;11926;48.120;11.562;2023-05-14T00:42:34;12.60;96.10
23499;DHT22;11926;48.120;11.562;2023-05-14T00:45:21;12.70;96.20
23499;DHT22;11926;48.120;11.562;2023-05-14T00:48:09;12.70;96.20
23499;DHT22;11926;48.120;11.562;2023-05-14T00:50:56;12.60;96.00
23499;DHT22;11926;48.120;11.562;2023-05-14T00:53:45;12.60;96.00
23499;DHT22;11926;48.120;11.562;2023-05-14T00:56:34;12.60;96.00
23499;DHT22;11926;48.120;11.562;2023-05-14T00:59:21;12.50;96.00
23499;DHT22;11926;48.120;11.562;2023-05-14T01:02:08;12.50;96.00
23499;DHT22;11926;48.120;11.562;2023-05-14T01:04:56;12.40;96.00
23499;DHT22;11926;48.120;11.562;2023-05-14T01:07:51;12.30;96.00
23499;DHT22;11926;48.120;11.562;2023-05-14T01:10:48;12.30;96.10
23499;DHT22;11926;48.120;11.562;2023-05-14T01:13:45;12.30;96.20
23499;DHT22;11926;48.120;11.562;2023-05-14T01:16:36;12.20;96.30
23499;DHT22;11926;48.120;11.562;2023-05-14T01:19:32;12.20;96.30
23499;DHT22;11926;48.120;11.562;2023-05-14T01:22:21;12.20;96.30
23499;DHT22;11926;48.120;11.562;2023-05-14T01:25:09;12.30;96.40
23499;DHT22;11926;48.120;11.562;2023-05-14T01:28:00;12.30;96.30
23499;DHT22;11926;48.120;11.562;2023-05-14T01:30:56;12.30;96.30
23499;DHT22;11926;48.120;11.562;2023-05-14T01:33:45;12.30;96.30
23499;DHT22;11926;48.120;11.562;2023-05-14T01:36:34;12.30;96.30
23499;DHT22;11926;48.120;11.562;2023-05-14T01:39:24;12.30;96.30
23499;DHT22;11926;48.120;11.562;2023-05-14T01:42:12;12.40;96.30
23499;DHT22;11926;48.120;11.562;2023-05-14T01:45:00;12.40;96.30
23499;DHT22;11926;48.120;11.562;2023-05-14T01:47:47;12.50;96.20
23499;DHT22;11926;48.120;11.562;2023-05-14T01:50:35;12.50;96.10
23499;DHT22;11926;48.120;11.562;2023-05-14T01:53:22;12.40;96.10
23499;DHT22;11926;48.120;11.562;2023-05-14T01:56:11;12.50;96.20
23499;DHT22;11926;48.120;11.562;2023-05-14T01:58:58;12.40;96.00
23499;DHT22;11926;48.120;11.562;2023-05-14T02:01:45;12.40;95.90
23499;DHT22;11926;48.120;11.562;2023-05-14T02:04:32;12.40;95.90
23499;DHT22;11926;48.120;11.562;2023-05-14T02:07:20;12.30;95.90
23499;DHT22;11926;48.120;11.562;2023-05-14T02:10:07;12.20;95.90
23499;DHT22;11926;48.120;11.562;2023-05-14T02:12:56;12.10;95.90
23499;DHT22;11926;48.120;11.562;2023-05-14T02:15:43;12.00;95.90
23499;DHT22;11926;48.120;11.562;2023-05-14T02:18:30;12.00;96.00
23499;DHT22;11926;48.120;11.562;2023-05-14T02:21:18;11.90;96.00
23499;DHT22;11926;48.120;11.562;2023-05-14T02:24:06;11.90;96.00
23499;DHT22;11926;48.120;11.562;2023-05-14T02:26:53;11.80;96.10
23499;DHT22;11926;48.120;11.562;2023-05-14T02:29:42;11.80;96.30
23499;DHT22;11926;48.120;11.562;2023-05-14T02:32:29;11.80;96.30
23499;DHT22;11926;48.120;11.562;2023-05-14T02:35:17;11.90;96.40
23499;DHT22;11926;48.120;11.562;2023-05-14T02:38:05;11.90;96.40
23499;DHT22;11926;48.120;11.562;2023-05-14T02:40:52;11.90;96.40
23499;DHT22;11926;48.120;11.562;2023-05-14T02:43:38;11.90;96.20
23499;DHT22;11926;48.120;11.562;2023-05-14T02:46:27;11.90;96.20
23499;DHT22;11926;48.120;11.562;2023-05-14T02:49:15;11.80;96.30
23499;DHT22;11926;48.120;11.562;2023-05-14T02:52:02;11.80;96.40
23499;DHT22;11926;48.120;11.562;2023-05-14T02:54:49;11.70;96.90
23499;DHT22;11926;48.120;11.562;2023-05-14T02:57:37;11.60;96.60
23499;DHT22;11926;48.120;11.562;2023-05-14T03:00:25;11.60;96.70
23499;DHT22;11926;48.120;11.562;2023-05-14T03:03:14;11.60;96.80
23499;DHT22;11926;48.120;11.562;2023-05-14T03:06:02;11.70;96.80
23499;DHT22;11926;48.120;11.562;2023-05-14T03:08:49;11.70;96.90
23499;DHT22;11926;48.120;11.562;2023-05-14T03:11:36;11.70;96.90
23499;DHT22;11926;48.120;11.562;2023-05-14T03:14:23;11.70;97.00
23499;DHT22;11926;48.120;11.562;2023-05-14T03:17:11;11.70;97.00
23499;DHT22;11926;48.120;11.562;2023-05-14T03:19:59;11.70;96.90
23499;DHT22;11926;48.120;11.562;2023-05-14T03:22:46;11.70;97.00
23499;DHT22;11926;48.120;11.562;2023-05-14T03:25:33;11.70;96.90
23499;DHT22;11926;48.120;11.562;2023-05-14T03:28:20;11.70;97.00
23499;DHT22;11926;48.120;11.562;2023-05-14T03:31:07;11.70;97.00
23499;DHT22;11926;48.120;11.562;2023-05-14T03:33:55;11.80;97.00
23499;DHT22;11926;48.120;11.562;2023-05-14T03:36:43;11.80;97.00
23499;DHT22;11926;48.120;11.562;2023-05-14T03:39:30;11.70;97.00
23499;DHT22;11926;48.120;11.562;2023-05-14T03:42:17;11.70;97.50
23499;DHT22;11926;48.120;11.562;2023-05-14T03:45:07;11.80;97.10
23499;DHT22;11926;48.120;11.562;2023-05-14T03:47:54;11.80;97.00
23499;DHT22;11926;48.120;11.562;2023-05-14T03:50:42;11.70;96.90
23499;DHT22;11926;48.120;11.562;2023-05-14T03:53:30;11.60;97.00
23499;DHT22;11926;48.120;11.562;2023-05-14T03:56:17;11.60;97.10
23499;DHT22;11926;48.120;11.562;2023-05-14T03:59:04;11.60;97.20
23499;DHT22;11926;48.120;11.562;2023-05-14T04:01:51;11.50;97.20
23499;DHT22;11926;48.120;11.562;2023-05-14T04:04:38;11.50;97.30
23499;DHT22;11926;48.120;11.562;2023-05-14T04:07:26;11.50;97.30
23499;DHT22;11926;48.120;11.562;2023-05-14T04:10:15;11.50;97.30
23499;DHT22;11926;48.120;11.562;2023-05-14T04:13:02;11.50;97.30
23499;DHT22;11926;48.120;11.562;2023-05-14T04:15:52;11.50;97.40
23499;DHT22;11926;48.120;11.562;2023-05-14T04:18:40;11.60;97.40
23499;DHT22;11926;48.120;11.562;2023-05-14T04:21:27;11.60;97.30
23499;DHT22;11926;48.120;11.562;2023-05-14T04:24:14;11.60;97.30
23499;DHT22;11926;48.120;11.562;2023-05-14T04:27:04;11.50;97.30
23499;DHT22;11926;48.120;11.562;2023-05-14T04:29:51;11.50;97.30
23499;DHT22;11926;48.120;11.562;2023-05-14T04:32:39;11.40;97.40
23499;DHT22;11926;48.120;11.562;2023-05-14T04:35:26;11.40;97.50
23499;DHT22;11926;48.120;11.562;2023-05-14T04:38:13;11.50;97.60
23499;DHT22;11926;48.120;11.562;2023-05-14T04:41:01;11.50;97.60
23499;DHT22;11926;48.120;11.562;2023-05-14T04:43:49;11.60;97.50
23499;DHT22;11926;48.120;11.562;2023-05-14T04:46:37;11.60;97.40
23499;DHT22;11926;48.120;11.562;2023-05-14T04:49:24;11.50;97.50
23499;DHT22;11926;48.120;11.562;2023-05-14T04:52:11;11.50;97.50
23499;DHT22;11926;48.120;11.562;2023-05-14T04:54:58;11.40;97.50
23499;DHT22;11926;48.120;11.562;2023-05-14T04:57:45;11.30;97.60
23499;DHT22;11926;48.120;11.562;2023-05-14T05:00:34;11.40;97.80
23499;DHT22;11926;48.120;11.562;2023-05-14T05:03:22;11.50;97.90
23499;DHT22;11926;48.120;11.562;2023-05-14T05:06:10;11.60;97.80
23499;DHT22;11926;48.120;11.562;2023-05-14T05:08:57;11.50;97.70
23499;DHT22;11926;48.120;11.562;2023-05-14T05:11:46;11.60;97.70
23499;DHT22;11926;48.120;11.562;2023-05-14T05:14:33;11.50;97.60
23499;DHT22;11926;48.120;11.562;2023-05-14T05:17:22;11.50;97.60
23499;DHT22;11926;48.120;11.562;2023-05-14T05:20:10;11.50;97.80
23499;DHT22;11926;48.120;11.562;2023-05-14T05:22:58;11.50;97.80
23499;DHT22;11926;48.120;11.562;2023-05-14T05:25:45;11.40;97.80
23499;DHT22;11926;48.120;11.562;2023-05-14T05:28:32;11.40;97.80
23499;DHT22;11926;48.120;11.562;2023-05-14T05:31:19;11.40;97.90
23499;DHT22;11926;48.120;11.562;2023-05-14T05:34:08;11.40;98.00
23499;DHT22;11926;48.120;11.562;2023-05-14T05:36:55;11.30;98.00
23499;DHT22;11926;48.120;11.562;2023-05-14T05:39:42;11.30;98.10
23499;DHT22;11926;48.120;11.562;2023-05-14T05:42:29;11.40;98.20
23499;DHT22;11926;48.120;11.562;2023-05-14T05:45:16;11.40;98.20
23499;DHT22;11926;48.120;11.562;2023-05-14T05:48:03;11.40;98.10
23499;DHT22;11926;48.120;11.562;2023-05-14T05:50:52;11.40;98.20
23499;DHT22;11926;48.120;11.562;2023-05-14T05:53:39;11.50;98.20
23499;DHT22;11926;48.120;11.562;2023-05-14T05:56:26;11.50;98.30
23499;DHT22;11926;48.120;11.562;2023-05-14T05:59:14;11.60;98.20
23499;DHT22;11926;48.120;11.562;2023-05-14T06:02:01;11.70;98.00
23499;DHT22;11926;48.120;11.562;2023-05-14T06:04:48;11.60;98.00
23499;DHT22;11926;48.120;11.562;2023-05-14T06:07:37;11.60;98.10
23499;DHT22;11926;48.120;11.562;2023-05-14T06:10:24;11.70;98.10
23499;DHT22;11926;48.120;11.562;2023-05-14T06:13:11;11.80;98.10
23499;DHT22;11926;48.120;11.562;2023-05-14T06:15:58;11.80;97.90
23499;DHT22;11926;48.120;11.562;2023-05-14T06:18:46;11.80;97.90
23499;DHT22;11926;48.120;11.562;2023-05-14T06:21:33;11.90;97.80
23499;DHT22;11926;48.120;11.562;2023-05-14T06:24:22;11.80;97.70
23499;DHT22;11926;48.120;11.562;2023-05-14T06:27:09;11.80;97.80
23499;DHT22;11926;48.120;11.562;2023-05-14T06:29:56;11.90;97.80
23499;DHT22;11926;48.120;11.562;2023-05-14T06:32:43;11.90;97.80
23499;DHT22;11926;48.120;11.562;2023-05-14T06:35:31;11.90;97.70
23499;DHT22;11926;48.120;11.562;2023-05-14T06:38:19;12.00;97.70
23499;DHT22;11926;48.120;11.562;2023-05-14T06:41:07;12.00;97.70
23499;DHT22;11926;48.120;11.562;2023-05-14T06:43:54;12.00;97.70
23499;DHT22;11926;48.120;11.562;2023-05-14T06:46:42;12.10;98.20
23499;DHT22;11926;48.120;11.562;2023-05-14T06:49:29;12.20;97.60
23499;DHT22;11926;48.120;11.562;2023-05-14T06:52:16;12.20;97.50
23499;DHT22;11926;48.120;11.562;2023-05-14T06:55:04;12.20;97.50
23499;DHT22;11926;48.120;11.562;2023-05-14T06:57:52;12.20;97.30
23499;DHT22;11926;48.120;11.562;2023-05-14T07:00:39;12.30;97.40
23499;DHT22;11926;48.120;11.562;2023-05-14T07:03:27;12.20;97.20
23499;DHT22;11926;48.120;11.562;2023-05-14T07:06:14;12.30;97.20
23499;DHT22;11926;48.120;11.562;2023-05-14T07:09:01;12.30;97.30
23499;DHT22;11926;48.120;11.562;2023-05-14T07:11:49;12.30;97.10
23499;DHT22;11926;48.120;11.562;2023-05-14T07:14:37;12.40;97.10
23499;DHT22;11926;48.120;11.562;2023-05-14T07:17:25;12.50;97.20
23499;DHT22;11926;48.120;11.562;2023-05-14T07:20:12;12.60;97.10
23499;DHT22;11926;48.120;11.562;2023-05-14T07:22:59;12.90;96.80
23499;DHT22;11926;48.120;11.562;2023-05-14T07:25:46;13.10;96.20
23499;DHT22;11926;48.120;11.562;2023-05-14T07:28:33;13.10;95.90
23499;DHT22;11926;48.120;11.562;2023-05-14T07:31:22;13.10;95.90
23499;DHT22;11926;48.120;11.562;2023-05-14T07:34:09;13.10;95.70
23499;DHT22;11926;48.120;11.562;2023-05-14T07:36:57;13.20;95.90
23499;DHT22;11926;48.120;11.562;2023-05-14T07:39:44;13.30;95.90
23499;DHT22;11926;48.120;11.562;2023-05-14T07:42:31;13.30;95.50
23499;DHT22;11926;48.120;11.562;2023-05-14T07:45:22;13.40;95.50
23499;DHT22;11926;48.120;11.562;2023-05-14T07:48:11;13.50;95.40
23499;DHT22;11926;48.120;11.562;2023-05-14T07:50:59;13.60;95.40
23499;DHT22;11926;48.120;11.562;2023-05-14T07:53:46;13.70;95.50
23499;DHT22;11926;48.120;11.562;2023-05-14T07:56:33;13.70;95.00
23499;DHT22;11926;48.120;11.562;2023-05-14T07:59:20;13.70;94.70
23499;DHT22;11926;48.120;11.562;2023-05-14T08:02:07;13.70;94.70
23499;DHT22;11926;48.120;11.562;2023-05-14T08:04:59;13.70;94.80
23499;DHT22;11926;48.120;11.562;2023-05-14T08:07:46;13.70;94.70
23499;DHT22;11926;48.120;11.562;2023-05-14T08:10:33;13.80;94.60
23499;DHT22;11926;48.120;11.562;2023-05-14T08:13:20;13.90;94.50
23499;DHT22;11926;48.120;11.562;2023-05-14T08:16:07;13.90;94.30
23499;DHT22;11926;48.120;11.562;2023-05-14T08:19:00;14.10;94.20
23499;DHT22;11926;48.120;11.562;2023-05-14T08:21:49;14.20;93.70
23499;DHT22;11926;48.120;11.562;2023-05-14T08:24:38;14.20;93.40
23499;DHT22;11926;48.120;11.562;2023-05-14T08:27:25;14.10;93.50
23499;DHT22;11926;48.120;11.562;2023-05-14T08:30:12;14.10;93.50
23499;DHT22;11926;48.120;11.562;2023-05-14T08:32:59;14.10;93.70
23499;DHT22;11926;48.120;11.562;2023-05-14T08:35:46;14.10;93.50
23499;DHT22;11926;48.120;11.562;2023-05-14T08:38:35;14.10;93.60
23499;DHT22;11926;48.120;11.562;2023-05-14T08:41:22;14.10;93.40
23499;DHT22;11926;48.120;11.562;2023-05-14T08:44:12;14.00;93.40
23499;DHT22;11926;48.120;11.562;2023-05-14T08:47:00;14.00;93.20
23499;DHT22;11926;48.120;11.562;2023-05-14T08:49:52;13.80;93.20
23499;DHT22;11926;48.120;11.562;2023-05-14T08:52:40;13.70;93.40
23499;DHT22;11926;48.120;11.562;2023-05-14T08:55:29;13.60;93.40
23499;DHT22;11926;48.120;11.562;2023-05-14T08:58:18;13.70;93.70
23499;DHT22;11926;48.120;11.562;2023-05-14T09:01:05;13.70;93.50
23499;DHT22;11926;48.120;11.562;2023-05-14T09:03:53;13.80;93.60
23499;DHT22;11926;48.120;11.562;2023-05-14T09:06:41;13.80;93.40
23499;DHT22;11926;48.120;11.562;2023-05-14T09:09:28;13.70;93.30
23499;DHT22;11926;48.120;11.562;2023-05-14T09:12:18;13.70;93.50
23499;DHT22;11926;48.120;11.562;2023-05-14T09:15:06;13.70;93.50
23499;DHT22;11926;48.120;11.562;2023-05-14T09:17:53;13.80;93.40
23499;DHT22;11926;48.120;11.562;2023-05-14T09:20:40;13.80;93.30
23499;DHT22;11926;48.120;11.562;2023-05-14T09:23:31;13.80;93.20
23499;DHT22;11926;48.120;11.562;2023-05-14T09:26:23;13.80;93.20
23499;DHT22;11926;48.120;11.562;2023-05-14T09:29:13;13.80;93.20
23499;DHT22;11926;48.120;11.562;2023-05-14T09:32:00;13.90;93.00
23499;DHT22;11926;48.120;11.562;2023-05-14T09:34:50;13.90;93.00
23499;DHT22;11926;48.120;11.562;2023-05-14T09:37:40;13.90;92.90
23499;DHT22;11926;48.120;11.562;2023-05-14T09:40:28;14.00;92.90
23499;DHT22;11926;48.120;11.562;2023-05-14T09:43:15;14.10;92.90
23499;DHT22;11926;48.120;11.562;2023-05-14T09:46:04;14.20;92.80
23499;DHT22;11926;48.120;11.562;2023-05-14T09:48:51;14.30;92.60
23499;DHT22;11926;48.120;11.562;2023-05-14T09:51:39;14.40;92.40
23499;DHT22;11926;48.120;11.562;2023-05-14T09:54:27;14.40;92.10
23499;DHT22;11926;48.120;11.562;2023-05-14T09:57:14;14.40;91.90
23499;DHT22;11926;48.120;11.562;2023-05-14T10:00:01;14.20;91.80
23499;DHT22;11926;48.120;11.562;2023-05-14T10:02:51;14.10;91.90
23499;DHT22;11926;48.120;11.562;2023-05-14T10:05:40;14.00;92.10
23499;DHT22;11926;48.120;11.562;2023-05-14T10:08:33;14.00;92.20
23499;DHT22;11926;48.120;11.562;2023-05-14T10:11:23;14.00;92.00
23499;DHT22;11926;48.120;11.562;2023-05-14T10:14:13;14.00;91.80
23499;DHT22;11926;48.120;11.562;2023-05-14T10:17:05;14.00;91.80
23499;DHT22;11926;48.120;11.562;2023-05-14T10:20:06;14.00;91.60
23499;DHT22;11926;48.120;11.562;2023-05-14T10:22:54;14.00;91.80
23499;DHT22;11926;48.120;11.562;2023-05-14T10:25:42;14.00;91.50
23499;DHT22;11926;48.120;11.562;2023-05-14T10:28:30;14.00;91.40
23499;DHT22;11926;48.120;11.562;2023-05-14T10:31:22;14.00;91.50
23499;DHT22;11926;48.120;11.562;2023-05-14T10:34:30;14.00;91.30
23499;DHT22;11926;48.120;11.562;2023-05-14T10:37:21;14.00;91.40
23499;DHT22;11926;48.120;11.562;2023-05-14T10:40:09;14.00;91.40
23499;DHT22;11926;48.120;11.562;2023-05-14T10:42:58;14.00;91.30
23499;DHT22;11926;48.120;11.562;2023-05-14T10:45:46;14.00;91.40
23499;DHT22;11926;48.120;11.562;2023-05-14T10:48:34;14.00;91.40
23499;DHT22;11926;48.120;11.562;2023-05-14T10:51:22;13.90;91.30
23499;DHT22;11926;48.120;11.562;2023-05-14T10:54:11;13.90;91.50
23499;DHT22;11926;48.120;11.562;2023-05-14T10:56:58;13.80;91.50
23499;DHT22;11926;48.120;11.562;2023-05-14T10:59:51;13.70;91.50
23499;DHT22;11926;48.120;11.562;2023-05-14T11:02:41;13.70;91.50
23499;DHT22;11926;48.120;11.562;2023-05-14T11:05:28;13.70;91.80
23499;DHT22;11926;48.120;11.562;2023-05-14T11:08:16;13.80;91.70
23499;DHT22;11926;48.120;11.562;2023-05-14T11:11:06;13.90;91.40
23499;DHT22;11926;48.120;11.562;2023-05-14T11:13:54;13.90;91.30
23499;DHT22;11926;48.120;11.562;2023-05-14T11:16:42;13.90;91.10
23499;DHT22;11926;48.120;11.562;2023-05-14T11:19:29;13.90;91.50
23499;DHT22;11926;48.120;11.562;2023-05-14T11:22:16;13.90;91.20
23499;DHT22;11926;48.120;11.562;2023-05-14T11:25:05;13.80;91.20
23499;DHT22;11926;48.120;11.562;2023-05-14T11:27:54;13.80;91.30
23499;DHT22;11926;48.120;11.562;2023-05-14T11:30:44;13.90;91.50
23499;DHT22;11926;48.120;11.562;2023-05-14T11:33:33;14.10;91.30
23499;DHT22;11926;48.120;11.562;2023-05-14T11:36:27;14.20;91.50
23499;DHT22;11926;48.120;11.562;2023-05-14T11:39:17;14.20;90.90
23499;DHT22;11926;48.120;11.562;2023-05-14T11:42:09;14.40;91.00
23499;DHT22;11926;48.120;11.562;2023-05-14T11:45:00;14.50;90.80
23499;DHT22;11926;48.120;11.562;2023-05-14T11:47:47;14.60;90.60
23499;DHT22;11926;48.120;11.562;2023-05-14T11:50:35;14.70;90.40
23499;DHT22;11926;48.120;11.562;2023-05-14T11:53:25;15.00;90.20
23499;DHT22;11926;48.120;11.562;2023-05-14T11:56:13;15.20;90.00
23499;DHT22;11926;48.120;11.562;2023-05-14T11:59:01;15.40;89.50
23499;DHT22;11926;48.120;11.562;2023-05-14T12:01:50;15.70;88.10
23499;DHT22;11926;48.120;11.562;2023-05-14T12:04:38;16.00;86.80
23499;DHT22;11926;48.120;11.562;2023-05-14T12:07:28;16.30;85.90
23499;DHT22;11926;48.120;11.562;2023-05-14T12:10:16;16.50;85.20
23499;DHT22;11926;48.120;11.562;2023-05-14T12:13:06;16.70;84.00
23499;DHT22;11926;48.120;11.562;2023-05-14T12:15:54;16.90;83.20
23499;DHT22;11926;48.120;11.562;2023-05-14T12:18:44;17.00;82.10
23499;DHT22;11926;48.120;11.562;2023-05-14T12:21:31;17.10;80.60
23499;DHT22;11926;48.120;11.562;2023-05-14T12:24:19;17.20;80.80
23499;DHT22;11926;48.120;11.562;2023-05-14T12:27:08;17.20;81.50
23499;DHT22;11926;48.120;11.562;2023-05-14T12:29:58;17.40;80.20
23499;DHT22;11926;48.120;11.562;2023-05-14T12:33:05;17.40;79.60
23499;DHT22;11926;48.120;11.562;2023-05-14T12:35:54;17.20;78.00
23499;DHT22;11926;48.120;11.562;2023-05-14T12:39:04;17.10;78.30
23499;DHT22;11926;48.120;11.562;2023-05-14T12:41:52;17.10;78.50
23499;DHT22;11926;48.120;11.562;2023-05-14T12:44:38;17.20;77.90
23499;DHT22;11926;48.120;11.562;2023-05-14T12:47:26;17.20;76.90
23499;DHT22;11926;48.120;11.562;2023-05-14T12:50:13;17.20;78.40
23499;DHT22;11926;48.120;11.562;2023-05-14T12:53:02;17.40;78.50
23499;DHT22;11926;48.120;11.562;2023-05-14T12:55:50;17.50;77.80
23499;DHT22;11926;48.120;11.562;2023-05-14T12:58:38;17.70;76.30
23499;DHT22;11926;48.120;11.562;2023-05-14T13:01:25;17.70;76.10
23499;DHT22;11926;48.120;11.562;2023-05-14T13:04:12;17.60;75.20
23499;DHT22;11926;48.120;11.562;2023-05-14T13:06:59;17.60;76.50
23499;DHT22;11926;48.120;11.562;2023-05-14T13:09:48;17.80;76.50
23499;DHT22;11926;48.120;11.562;2023-05-14T13:12:35;18.10;77.00
23499;DHT22;11926;48.120;11.562;2023-05-14T13:15:23;18.40;75.00
23499;DHT22;11926;48.120;11.562;2023-05-14T13:18:11;18.50;74.50
23499;DHT22;11926;48.120;11.562;2023-05-14T13:20:58;18.60;75.10
23499;DHT22;11926;48.120;11.562;2023-05-14T13:23:49;18.80;74.10
23499;DHT22;11926;48.120;11.562;2023-05-14T13:26:37;19.00;73.50
23499;DHT22;11926;48.120;11.562;2023-05-14T13:29:24;19.00;72.60
23499;DHT22;11926;48.120;11.562;2023-05-14T13:32:12;19.10;71.20
23499;DHT22;11926;48.120;11.562;2023-05-14T13:34:59;19.20;71.60
23499;DHT22;11926;48.120;11.562;2023-05-14T13:37:46;19.20;70.00
23499;DHT22;11926;48.120;11.562;2023-05-14T13:40:34;19.10;70.10
23499;DHT22;11926;48.120;11.562;2023-05-14T13:43:22;19.10;70.40
23499;DHT22;11926;48.120;11.562;2023-05-14T13:46:09;19.20;71.10
23499;DHT22;11926;48.120;11.562;2023-05-14T13:48:56;19.30;70.60
23499;DHT22;11926;48.120;11.562;2023-05-14T13:51:44;19.10;68.60
23499;DHT22;11926;48.120;11.562;2023-05-14T13:54:31;18.90;69.40
23499;DHT22;11926;48.120;11.562;2023-05-14T13:57:19;19.00;69.10
23499;DHT22;11926;48.120;11.562;2023-05-14T14:00:08;19.20;69.50
23499;DHT22;11926;48.120;11.562;2023-05-14T14:02:56;19.30;67.80
23499;DHT22;11926;48.120;11.562;2023-05-14T14:05:44;19.50;68.70
23499;DHT22;11926;48.120;11.562;2023-05-14T14:08:31;19.70;66.70
23499;DHT22;11926;48.120;11.562;2023-05-14T14:11:18;19.80;66.70
23499;DHT22;11926;48.120;11.562;2023-05-14T14:14:06;19.80;65.00
23499;DHT22;11926;48.120;11.562;2023-05-14T14:16:55;19.60;64.90
23499;DHT22;11926;48.120;11.562;2023-05-14T14:19:42;19.40;64.20
23499;DHT22;11926;48.120;11.562;2023-05-14T14:22:29;19.20;63.80
23499;DHT22;11926;48.120;11.562;2023-05-14T14:28:04;19.20;63.80
23499;DHT22;11926;48.120;11.562;2023-05-14T14:30:51;19.40;66.20
23499;DHT22;11926;48.120;11.562;2023-05-14T14:33:40;19.70;63.80
23499;DHT22;11926;48.120;11.562;2023-05-14T14:36:27;19.90;62.60
23499;DHT22;11926;48.120;11.562;2023-05-14T14:39:15;20.20;62.60
23499;DHT22;11926;48.120;11.562;2023-05-14T14:42:03;20.30;62.90
23499;DHT22;11926;48.120;11.562;2023-05-14T14:47:41;20.70;60.30
23499;DHT22;11926;48.120;11.562;2023-05-14T14:50:30;20.70;61.80
23499;DHT22;11926;48.120;11.562;2023-05-14T14:53:17;20.70;61.30
23499;DHT22;11926;48.120;11.562;2023-05-14T14:56:05;20.90;61.50
23499;DHT22;11926;48.120;11.562;2023-05-14T14:58:52;21.10;59.50
23499;DHT22;11926;48.120;11.562;2023-05-14T15:01:39;21.30;58.80
23499;DHT22;11926;48.120;11.562;2023-05-14T15:04:26;21.30;58.30
23499;DHT22;11926;48.120;11.562;2023-05-14T15:07:19;21.10;57.40
23499;DHT22;11926;48.120;11.562;2023-05-14T15:10:07;20.80;58.70
23499;DHT22;11926;48.120;11.562;2023-05-14T15:12:56;20.70;60.10
23499;DHT22;11926;48.120;11.562;2023-05-14T15:15:43;20.70;58.60
23499;DHT22;11926;48.120;11.562;2023-05-14T15:18:30;20.50;59.00
23499;DHT22;11926;48.120;11.562;2023-05-14T15:21:18;20.50;58.30
23499;DHT22;11926;48.120;11.562;2023-05-14T15:24:10;20.40;59.90
23499;DHT22;11926;48.120;11.562;2023-05-14T15:26:58;20.50;58.80
23499;DHT22;11926;48.120;11.562;2023-05-14T15:29:45;20.30;59.30
23499;DHT22;11926;48.120;11.562;2023-05-14T15:32:33;20.20;59.80
23499;DHT22;11926;48.120;11.562;2023-05-14T15:35:20;20.10;59.60
23499;DHT22;11926;48.120;11.562;2023-05-14T15:38:08;19.90;59.80
23499;DHT22;11926;48.120;11.562;2023-05-14T15:40:56;19.80;60.30
23499;DHT22;11926;48.120;11.562;2023-05-14T15:43:44;19.80;60.60
23499;DHT22;11926;48.120;11.562;2023-05-14T15:46:31;19.80;60.60
23499;DHT22;11926;48.120;11.562;2023-05-14T15:49:19;19.70;61.30
23499;DHT22;11926;48.120;11.562;2023-05-14T15:52:06;19.70;60.80
23499;DHT22;11926;48.120;11.562;2023-05-14T15:54:54;19.60;61.10
23499;DHT22;11926;48.120;11.562;2023-05-14T15:57:44;19.50;62.60
23499;DHT22;11926;48.120;11.562;2023-05-14T16:00:31;19.40;62.40
23499;DHT22;11926;48.120;11.562;2023-05-14T16:03:19;19.30;62.40
23499;DHT22;11926;48.120;11.562;2023-05-14T16:06:07;18.90;60.70
23499;DHT22;11926;48.120;11.562;2023-05-14T16:08:54;18.50;61.30
23499;DHT22;11926;48.120;11.562;2023-05-14T16:11:41;17.90;62.90
23499;DHT22;11926;48.120;11.562;2023-05-14T16:14:31;17.30;65.00
23499;DHT22;11926;48.120;11.562;2023-05-14T16:17:19;17.00;67.30
23499;DHT22;11926;48.120;11.562;2023-05-14T16:20:07;16.80;68.70
23499;DHT22;11926;48.120;11.562;2023-05-14T16:22:54;16.50;70.50
23499;DHT22;11926;48.120;11.562;2023-05-14T16:25:41;16.40;71.80
23499;DHT22;11926;48.120;11.562;2023-05-14T16:28:28;16.30;73.60
23499;DHT22;11926;48.120;11.562;2023-05-14T16:31:17;16.10;75.40
23499;DHT22;11926;48.120;11.562;2023-05-14T16:34:04;15.90;77.60
23499;DHT22;11926;48.120;11.562;2023-05-14T16:36:52;15.60;79.00
23499;DHT22;11926;48.120;11.562;2023-05-14T16:39:39;15.40;80.90
23499;DHT22;11926;48.120;11.562;2023-05-14T16:42:27;15.40;81.90
23499;DHT22;11926;48.120;11.562;2023-05-14T16:45:14;15.30;83.10
23499;DHT22;11926;48.120;11.562;2023-05-14T16:48:03;15.20;83.80
23499;DHT22;11926;48.120;11.562;2023-05-14T16:50:51;15.10;84.50
23499;DHT22;11926;48.120;11.562;2023-05-14T16:53:38;14.90;85.40
23499;DHT22;11926;48.120;11.562;2023-05-14T16:56:26;14.90;86.00
23499;DHT22;11926;48.120;11.562;2023-05-14T16:59:15;14.90;86.50
23499;DHT22;11926;48.120;11.562;2023-05-14T17:02:03;14.80;86.90
23499;DHT22;11926;48.120;11.562;2023-05-14T17:04:52;14.70;88.60
23499;DHT22;11926;48.120;11.562;2023-05-14T17:07:40;14.60;88.00
23499;DHT22;11926;48.120;11.562;2023-05-14T17:10:27;14.50;88.50
23499;DHT22;11926;48.120;11.562;2023-05-14T17:13:15;14.40;88.90
23499;DHT22;11926;48.120;11.562;2023-05-14T17:16:03;14.30;89.70
23499;DHT22;11926;48.120;11.562;2023-05-14T17:18:50;14.30;90.20
23499;DHT22;11926;48.120;11.562;2023-05-14T17:21:39;14.30;90.30
23499;DHT22;11926;48.120;11.562;2023-05-14T17:24:26;14.20;90.40
23499;DHT22;11926;48.120;11.562;2023-05-14T17:27:13;14.10;90.70
23499;DHT22;11926;48.120;11.562;2023-05-14T17:30:02;14.00;91.00